createdAt,value
2023-02-09T00:00:50.446Z,25.98
2023-02-09T00:02:52.058Z,26.05
2023-02-09T00:04:53.694Z,26.73
2023-02-09T00:06:55.296Z,26.20
2023-02-09T00:08:58.408Z,25.65
2023-02-09T00:11:00.079Z,26.25
2023-02-09T00:13:20.482Z,28.08
2023-02-09T00:15:22.200Z,28.15
2023-02-09T00:17:24.028Z,27.50
2023-02-09T00:19:25.683Z,27.52
2023-02-09T00:21:27.237Z,24.05
2023-02-09T00:23:30.630Z,23.90
2023-02-09T00:25:32.245Z,25.75
2023-02-09T00:27:35.852Z,26.88
2023-02-09T00:29:37.590Z,25.75
2023-02-09T00:31:39.814Z,23.45
2023-02-09T00:33:41.609Z,25.08
2023-02-09T00:35:44.145Z,22.50
2023-02-09T00:37:45.817Z,22.88
2023-02-09T00:39:47.578Z,22.38
2023-02-09T00:42:07.032Z,24.58
2023-02-09T00:44:12.096Z,23.25
2023-02-09T00:46:13.773Z,24.08
2023-02-09T00:48:15.415Z,23.73
2023-02-09T00:50:17.005Z,25.08
2023-02-09T00:52:18.589Z,23.65
2023-02-09T00:54:20.265Z,21.77
2023-02-09T00:56:21.897Z,22.20
2023-02-09T00:58:23.569Z,22.50
2023-02-09T01:00:26.307Z,23.05
2023-02-09T01:02:27.935Z,23.23
2023-02-09T01:04:29.793Z,21.48
2023-02-09T01:06:31.771Z,21.75
2023-02-09T01:08:33.723Z,21.58
2023-02-09T01:10:35.494Z,21.23
2023-02-09T01:12:39.942Z,24.17
2023-02-09T01:14:41.926Z,26.48
2023-02-09T01:16:43.700Z,27.30
2023-02-09T01:18:45.440Z,25.48
2023-02-09T01:20:47.532Z,27.63
2023-02-09T01:22:50.559Z,27.55
2023-02-09T01:24:52.165Z,28.05
2023-02-09T01:26:53.817Z,27.50
2023-02-09T01:28:55.694Z,27.55
2023-02-09T01:30:57.692Z,27.08
2023-02-09T01:32:59.389Z,26.83
2023-02-09T01:35:01.146Z,27.02
2023-02-09T01:37:02.852Z,26.67
2023-02-09T01:39:05.040Z,26.55
2023-02-09T01:41:06.694Z,26.13
2023-02-09T01:43:11.523Z,23.80
2023-02-09T01:45:38.976Z,24.70
2023-02-09T01:47:48.634Z,25.20
2023-02-09T01:49:51.642Z,26.17
2023-02-09T01:52:16.006Z,24.73
2023-02-09T01:54:23.074Z,26.40
2023-02-09T01:56:29.735Z,25.95
2023-02-09T01:58:31.793Z,27.20
2023-02-09T02:00:33.497Z,29.10
2023-02-09T02:02:35.366Z,26.40
2023-02-09T02:04:38.044Z,24.25
2023-02-09T02:06:40.362Z,25.38
2023-02-09T02:08:48.378Z,19.02
2023-02-09T02:10:51.077Z,17.27
2023-02-09T02:12:54.499Z,16.05
2023-02-09T02:14:56.122Z,15.73
2023-02-09T02:17:24.056Z,15.30
2023-02-09T02:19:49.931Z,15.85
2023-02-09T02:22:14.578Z,14.52
2023-02-09T02:26:42.457Z,15.38
2023-02-09T02:29:01.937Z,14.13
2023-02-09T02:31:28.365Z,13.73
2023-02-09T02:33:39.279Z,14.23
2023-02-09T02:35:47.513Z,13.18
2023-02-09T02:38:02.814Z,11.77
2023-02-09T02:40:11.107Z,12.20
2023-02-09T02:42:52.153Z,10.93
2023-02-09T02:45:01.821Z,9.43
2023-02-09T02:47:06.770Z,10.70
2023-02-09T02:49:17.144Z,11.20
2023-02-09T02:51:31.852Z,10.60
2023-02-09T02:53:36.016Z,11.05
2023-02-09T02:55:38.481Z,9.95
2023-02-09T02:57:43.891Z,10.00
2023-02-09T02:59:53.130Z,9.50
2023-02-09T03:01:59.062Z,9.75
2023-02-09T03:04:01.726Z,9.50
2023-02-09T03:06:05.910Z,9.57
2023-02-09T03:08:07.468Z,10.00
2023-02-09T03:10:30.395Z,10.05
2023-02-09T03:12:37.919Z,9.85
2023-02-09T03:14:56.489Z,9.88
2023-02-09T03:17:12.324Z,10.30
2023-02-09T03:19:16.775Z,9.70
2023-02-09T03:21:38.067Z,9.23
2023-02-09T03:23:48.648Z,8.63
2023-02-09T03:25:52.557Z,9.50
2023-02-09T03:27:57.557Z,10.10
2023-02-09T03:30:01.270Z,9.45
2023-02-09T03:32:03.070Z,9.77
2023-02-09T03:34:05.546Z,10.00
2023-02-09T03:36:12.831Z,9.35
2023-02-09T03:38:14.467Z,9.50
2023-02-09T03:40:35.235Z,9.68
2023-02-09T03:42:36.889Z,10.75
2023-02-09T03:44:38.461Z,15.30
2023-02-09T03:46:40.136Z,15.52
2023-02-09T03:48:41.877Z,19.13
2023-02-09T03:50:43.785Z,20.67
2023-02-09T03:52:45.680Z,21.95
2023-02-09T03:54:47.905Z,22.33
2023-02-09T03:56:49.652Z,19.90
2023-02-09T03:58:52.107Z,22.25
2023-02-09T04:00:53.744Z,19.80
2023-02-09T04:02:56.408Z,19.50
2023-02-09T04:04:58.019Z,20.10
2023-02-09T04:07:00.078Z,22.92
2023-02-09T04:09:02.737Z,23.48
2023-02-09T04:11:04.477Z,24.42
2023-02-09T04:13:06.096Z,23.35
2023-02-09T04:15:08.027Z,23.88
2023-02-09T04:17:09.772Z,24.80
2023-02-09T04:19:12.396Z,26.92
2023-02-09T04:21:14.368Z,27.20
2023-02-09T04:23:16.039Z,24.75
2023-02-09T04:25:17.817Z,23.17
2023-02-09T04:27:19.381Z,24.38
2023-02-09T04:29:21.192Z,35.60
2023-02-09T04:31:23.152Z,21.98
2023-02-09T04:33:25.264Z,18.58
2023-02-09T04:35:26.874Z,21.42
2023-02-09T04:37:28.530Z,20.50
2023-02-09T04:39:30.318Z,21.20
2023-02-09T04:41:31.923Z,19.55
2023-02-09T04:43:33.750Z,21.63
2023-02-09T04:45:38.406Z,18.00
2023-02-09T04:47:40.056Z,13.65
2023-02-09T04:49:42.771Z,17.35
2023-02-09T04:51:44.380Z,16.80
2023-02-09T04:53:46.020Z,14.18
2023-02-09T04:55:48.005Z,11.77
2023-02-09T04:58:08.137Z,9.90
2023-02-09T05:00:10.534Z,10.63
2023-02-09T05:02:12.506Z,11.52
2023-02-09T05:04:14.068Z,10.20
2023-02-09T05:06:15.870Z,10.65
2023-02-09T05:08:17.491Z,10.57
2023-02-09T05:10:19.243Z,10.57
2023-02-09T05:12:20.928Z,11.48
2023-02-09T05:14:22.515Z,11.00
2023-02-09T05:16:24.150Z,11.85
2023-02-09T05:18:25.976Z,11.68
2023-02-09T05:20:27.596Z,11.48
2023-02-09T05:22:29.290Z,11.02
2023-02-09T05:24:31.021Z,10.02
2023-02-09T05:26:32.641Z,10.73
2023-02-09T05:28:34.378Z,11.13
2023-02-09T05:30:35.978Z,13.00
2023-02-09T05:32:37.603Z,11.38
2023-02-09T05:34:39.227Z,11.82
2023-02-09T05:36:40.801Z,14.27
2023-02-09T05:38:42.480Z,15.57
2023-02-09T05:40:45.218Z,15.32
2023-02-09T05:42:47.055Z,13.63
2023-02-09T05:44:50.301Z,12.32
2023-02-09T05:46:51.926Z,12.77
2023-02-09T05:48:53.583Z,12.35
2023-02-09T05:50:55.199Z,13.65
2023-02-09T05:53:00.122Z,13.48
2023-02-09T05:55:01.762Z,13.82
2023-02-09T05:57:03.651Z,13.93
2023-02-09T05:59:05.393Z,13.02
2023-02-09T06:01:06.952Z,14.23
2023-02-09T06:03:08.660Z,15.68
2023-02-09T06:05:10.549Z,19.40
2023-02-09T06:07:12.215Z,21.02
2023-02-09T06:09:13.935Z,21.00
2023-02-09T06:11:15.602Z,20.83
2023-02-09T06:13:17.230Z,18.63
2023-02-09T06:15:18.960Z,18.83
2023-02-09T06:17:20.615Z,19.60
2023-02-09T06:19:22.286Z,18.40
2023-02-09T06:21:24.149Z,22.77
2023-02-09T06:23:25.752Z,18.40
2023-02-09T06:25:27.441Z,17.95
2023-02-09T06:27:29.079Z,15.65
2023-02-09T06:29:31.484Z,15.82
2023-02-09T06:31:34.064Z,12.32
2023-02-09T06:33:37.127Z,10.85
2023-02-09T06:35:38.836Z,9.80
2023-02-09T06:37:40.419Z,8.93
2023-02-09T06:39:42.036Z,9.43
2023-02-09T06:41:43.690Z,9.90
2023-02-09T06:43:45.339Z,10.10
2023-02-09T06:45:46.968Z,10.25
2023-02-09T06:47:48.640Z,9.57
2023-02-09T06:49:50.217Z,9.27
2023-02-09T06:51:52.157Z,9.27
2023-02-09T06:53:54.235Z,8.88
2023-02-09T06:56:01.522Z,9.15
2023-02-09T06:58:03.771Z,9.98
2023-02-09T07:00:08.647Z,9.65
2023-02-09T07:02:10.969Z,10.07
2023-02-09T07:04:12.564Z,11.70
2023-02-09T07:06:16.705Z,9.35
2023-02-09T07:08:18.352Z,9.82
2023-02-09T07:10:20.138Z,9.48
2023-02-09T07:12:21.788Z,8.85
2023-02-09T07:14:23.397Z,8.98
2023-02-09T07:16:25.069Z,8.95
2023-02-09T07:18:27.678Z,9.13
2023-02-09T07:20:29.331Z,8.73
2023-02-09T07:22:31.055Z,8.55
2023-02-09T07:24:32.684Z,10.10
2023-02-09T07:26:34.327Z,9.35
2023-02-09T07:28:36.656Z,8.88
2023-02-09T07:30:41.200Z,8.60
2023-02-09T07:32:43.025Z,8.35
2023-02-09T07:34:44.635Z,6.82
2023-02-09T07:36:47.750Z,6.63
2023-02-09T07:38:49.800Z,6.65
2023-02-09T07:40:51.779Z,7.72
2023-02-09T07:42:53.438Z,7.50
2023-02-09T07:44:55.158Z,7.88
2023-02-09T07:46:56.816Z,7.90
2023-02-09T07:49:01.107Z,9.30
2023-02-09T07:51:03.735Z,8.48
2023-02-09T07:53:05.353Z,9.00
2023-02-09T07:55:07.422Z,8.40
2023-02-09T07:57:09.038Z,11.32
2023-02-09T07:59:11.464Z,12.98
2023-02-09T08:01:14.408Z,9.57
2023-02-09T08:03:18.552Z,8.77
2023-02-09T08:05:28.444Z,8.18
2023-02-09T08:07:30.394Z,8.27
2023-02-09T08:09:32.004Z,7.70
2023-02-09T08:11:46.055Z,7.50
2023-02-09T08:13:48.105Z,6.22
2023-02-09T08:15:54.585Z,6.82
2023-02-09T08:17:57.906Z,6.55
2023-02-09T08:20:03.548Z,6.97
2023-02-09T08:22:05.116Z,5.82
2023-02-09T08:24:08.093Z,5.95
2023-02-09T08:26:11.881Z,6.70
2023-02-09T08:28:13.493Z,6.35
2023-02-09T08:30:17.116Z,5.57
2023-02-09T08:32:18.751Z,5.70
2023-02-09T08:34:20.391Z,5.47
2023-02-09T08:36:22.065Z,5.97
2023-02-09T08:38:23.650Z,6.38
2023-02-09T08:40:25.271Z,5.85
2023-02-09T08:42:26.962Z,6.90
2023-02-09T08:44:28.545Z,5.85
2023-02-09T08:46:30.365Z,6.07
2023-02-09T08:48:35.673Z,5.75
2023-02-09T08:50:38.494Z,5.78
2023-02-09T08:52:40.580Z,6.20
2023-02-09T08:54:42.240Z,6.53
2023-02-09T08:56:44.302Z,6.35
2023-02-09T08:58:45.919Z,6.18
2023-02-09T09:00:47.590Z,6.00
2023-02-09T09:02:49.254Z,5.90
2023-02-09T09:04:50.894Z,6.57
2023-02-09T09:06:52.478Z,5.63
2023-02-09T09:08:54.170Z,6.50
2023-02-09T09:10:56.096Z,6.35
2023-02-09T09:12:58.907Z,6.00
2023-02-09T09:15:00.759Z,6.00
2023-02-09T09:17:02.392Z,5.60
2023-02-09T09:19:05.148Z,5.40
2023-02-09T09:21:06.848Z,5.00
2023-02-09T09:23:09.148Z,4.88
2023-02-09T09:25:10.929Z,5.43
2023-02-09T09:27:12.592Z,5.45
2023-02-09T09:29:14.159Z,5.07
2023-02-09T09:31:18.914Z,5.50
2023-02-09T09:33:20.543Z,5.47
2023-02-09T09:35:22.310Z,5.22
2023-02-09T09:37:25.319Z,4.60
2023-02-09T09:39:26.986Z,5.20
2023-02-09T09:41:29.940Z,5.70
2023-02-09T09:43:37.088Z,5.30
2023-02-09T09:45:39.038Z,5.55
2023-02-09T09:47:42.223Z,5.30
2023-02-09T09:49:44.121Z,5.22
2023-02-09T09:52:11.869Z,4.82
2023-02-09T09:54:25.241Z,4.88
2023-02-09T09:56:29.726Z,5.30
2023-02-09T09:58:33.125Z,5.63
2023-02-09T10:00:41.479Z,5.55
2023-02-09T10:02:44.490Z,4.93
2023-02-09T10:04:47.852Z,4.77
2023-02-09T10:06:58.337Z,5.65
2023-02-09T10:09:06.472Z,5.03
2023-02-09T10:11:16.715Z,6.07
2023-02-09T10:13:22.340Z,5.10
2023-02-09T10:15:33.543Z,4.55
2023-02-09T10:17:35.148Z,4.90
2023-02-09T10:19:36.772Z,4.50
2023-02-09T10:21:38.522Z,4.45
2023-02-09T10:23:46.019Z,4.80
2023-02-09T10:25:59.657Z,6.13
2023-02-09T10:28:06.372Z,5.30
2023-02-09T10:30:19.371Z,4.50
2023-02-09T10:32:23.736Z,4.88
2023-02-09T10:34:37.382Z,5.22
2023-02-09T10:37:18.006Z,5.13
2023-02-09T10:39:30.908Z,5.05
2023-02-09T10:41:34.134Z,4.53
2023-02-09T10:43:35.895Z,4.35
2023-02-09T10:45:39.922Z,5.07
2023-02-09T10:47:41.963Z,4.18
2023-02-09T10:49:43.547Z,4.80
2023-02-09T10:51:45.192Z,4.43
2023-02-09T10:53:55.976Z,4.85
2023-02-09T10:56:19.027Z,5.07
2023-02-09T10:58:27.014Z,4.88
2023-02-09T11:00:32.322Z,5.15
2023-02-09T11:02:36.203Z,4.47
2023-02-09T11:07:01.526Z,4.57
2023-02-09T11:09:12.861Z,4.50
2023-02-09T11:11:23.737Z,4.68
2023-02-09T11:13:26.424Z,4.85
2023-02-09T11:15:34.483Z,4.78
2023-02-09T11:17:46.464Z,4.88
2023-02-09T11:19:48.065Z,5.53
2023-02-09T11:22:11.064Z,5.93
2023-02-09T11:24:37.446Z,13.88
2023-02-09T11:26:39.535Z,6.50
2023-02-09T11:28:59.650Z,5.25
2023-02-09T11:31:39.820Z,5.88
2023-02-09T11:34:05.087Z,4.45
2023-02-09T11:36:42.030Z,4.90
2023-02-09T11:38:53.298Z,4.82
2023-02-09T11:40:56.712Z,5.22
2023-02-09T11:43:10.141Z,4.72
2023-02-09T11:45:19.647Z,4.80
2023-02-09T11:47:27.204Z,4.57
2023-02-09T11:49:30.228Z,4.88
2023-02-09T11:51:34.939Z,4.50
2023-02-09T11:53:45.692Z,4.45
2023-02-09T11:55:49.372Z,4.50
2023-02-09T11:57:56.949Z,4.50
2023-02-09T11:59:59.309Z,7.80
2023-02-09T12:02:38.296Z,6.63
2023-02-09T12:04:59.608Z,4.05
2023-02-09T12:07:03.621Z,6.05
2023-02-09T12:09:15.189Z,4.68
2023-02-09T12:11:48.118Z,5.15
2023-02-09T12:14:04.674Z,4.78
2023-02-09T12:16:18.591Z,4.20
2023-02-09T12:18:23.413Z,4.40
2023-02-09T12:20:44.511Z,4.30
2023-02-09T12:23:01.270Z,4.43
2023-02-09T12:25:11.769Z,4.53
2023-02-09T12:27:25.688Z,4.82
2023-02-09T12:29:30.102Z,4.68
2023-02-09T12:32:00.393Z,3.95
2023-02-09T12:34:10.479Z,4.90
2023-02-09T12:36:16.975Z,4.30
2023-02-09T12:38:19.687Z,4.07
2023-02-09T12:40:23.824Z,4.43
2023-02-09T12:42:30.732Z,5.97
2023-02-09T12:44:32.309Z,5.80
2023-02-09T12:46:47.717Z,5.00
2023-02-09T12:49:01.489Z,4.68
2023-02-09T12:51:03.132Z,5.20
2023-02-09T12:53:31.522Z,4.35
2023-02-09T12:55:33.264Z,4.38
2023-02-09T12:57:51.159Z,4.60
2023-02-09T12:59:52.748Z,4.65
2023-02-09T13:02:07.296Z,5.10
2023-02-09T13:04:09.122Z,4.82
2023-02-09T13:06:27.433Z,4.68
2023-02-09T13:08:35.103Z,4.90
2023-02-09T13:10:44.432Z,4.93
2023-02-09T13:12:50.880Z,5.63
2023-02-09T13:14:52.532Z,5.10
2023-02-09T13:17:09.300Z,5.07
2023-02-09T13:19:47.388Z,5.03
2023-02-09T13:22:19.806Z,5.00
2023-02-09T13:24:46.867Z,4.32
2023-02-09T13:26:51.542Z,4.88
2023-02-09T13:29:29.693Z,5.18
2023-02-09T13:31:36.748Z,5.30
2023-02-09T13:34:00.835Z,4.80
2023-02-09T13:36:48.711Z,4.35
2023-02-09T13:38:50.835Z,5.00
2023-02-09T13:40:52.584Z,4.57
2023-02-09T13:43:17.637Z,4.53
2023-02-09T13:45:19.731Z,4.40
2023-02-09T13:47:21.896Z,5.40
2023-02-09T13:49:25.425Z,5.70
2023-02-09T13:51:27.043Z,5.07
2023-02-09T13:53:30.266Z,4.50
2023-02-09T13:55:32.044Z,4.95
2023-02-09T13:57:38.729Z,5.10
2023-02-09T13:59:41.785Z,5.28
2023-02-09T14:01:46.338Z,5.05
2023-02-09T14:03:58.565Z,5.07
2023-02-09T14:06:01.908Z,5.00
2023-02-09T14:08:03.767Z,5.07
2023-02-09T14:10:16.991Z,5.00
2023-02-09T14:12:42.363Z,4.53
2023-02-09T14:15:09.531Z,4.50
2023-02-09T14:17:24.419Z,4.38
2023-02-09T14:19:30.776Z,5.05
2023-02-09T14:21:37.491Z,5.47
2023-02-09T14:23:50.202Z,4.38
2023-02-09T14:26:15.209Z,4.63
2023-02-09T14:28:16.855Z,4.60
2023-02-09T14:30:32.112Z,4.97
2023-02-09T14:32:40.451Z,5.20
2023-02-09T14:34:42.859Z,4.55
2023-02-09T14:36:54.999Z,4.35
2023-02-09T14:39:16.882Z,4.63
2023-02-09T14:41:28.152Z,4.45
2023-02-09T14:43:29.917Z,4.20
2023-02-09T14:45:37.637Z,4.88
2023-02-09T14:47:44.080Z,6.40
2023-02-09T14:49:45.663Z,7.20
2023-02-09T14:51:48.746Z,7.30
2023-02-09T14:53:50.536Z,8.07
2023-02-09T14:55:54.242Z,9.50
2023-02-09T14:57:55.952Z,7.65
2023-02-09T14:59:57.579Z,6.85
2023-02-09T15:01:59.236Z,11.68
2023-02-09T15:04:00.815Z,7.93
2023-02-09T15:06:04.155Z,6.97
2023-02-09T15:08:09.049Z,7.43
2023-02-09T15:10:31.969Z,6.57
2023-02-09T15:12:33.684Z,6.22
2023-02-09T15:14:42.494Z,6.05
2023-02-09T15:16:44.030Z,6.70
2023-02-09T15:18:45.689Z,6.28
2023-02-09T15:20:47.447Z,6.78
2023-02-09T15:22:49.118Z,6.10
2023-02-09T15:24:54.334Z,6.78
2023-02-09T15:26:56.328Z,6.22
2023-02-09T15:28:57.912Z,6.97
2023-02-09T15:30:59.943Z,7.13
2023-02-09T15:33:02.088Z,7.90
2023-02-09T15:35:05.192Z,7.30
2023-02-09T15:37:06.937Z,6.78
2023-02-09T15:39:19.203Z,7.30
2023-02-09T15:41:44.080Z,6.65
2023-02-09T15:44:03.957Z,6.80
2023-02-09T15:46:06.459Z,7.50
2023-02-09T15:48:09.109Z,8.07
2023-02-09T15:50:10.737Z,7.55
2023-02-09T15:52:13.513Z,7.28
2023-02-09T15:54:18.844Z,7.80
2023-02-09T15:56:20.651Z,8.10
2023-02-09T15:58:29.086Z,8.70
2023-02-09T16:00:31.432Z,7.80
2023-02-09T16:02:33.116Z,7.75
2023-02-09T16:04:34.755Z,7.15
2023-02-09T16:06:36.596Z,7.28
2023-02-09T16:08:38.726Z,7.45
2023-02-09T16:10:40.398Z,7.78
2023-02-09T16:12:42.197Z,8.00
2023-02-09T16:14:43.921Z,7.85
2023-02-09T16:16:45.962Z,8.13
2023-02-09T16:18:47.741Z,7.93
2023-02-09T16:20:50.904Z,7.65
2023-02-09T16:22:52.893Z,8.30
2023-02-09T16:24:54.654Z,8.43
2023-02-09T16:26:58.655Z,7.65
2023-02-09T16:29:00.788Z,7.22
2023-02-09T16:31:02.535Z,8.30
2023-02-09T16:33:04.689Z,8.50
2023-02-09T16:35:16.388Z,9.77
2023-02-09T16:37:25.184Z,9.05
2023-02-09T16:39:26.759Z,8.80
2023-02-09T16:41:47.141Z,8.40
2023-02-09T16:43:48.704Z,7.82
2023-02-09T16:46:02.703Z,8.50
2023-02-09T16:48:05.238Z,9.13
2023-02-09T16:50:46.832Z,9.95
2023-02-09T16:52:50.220Z,8.77
2023-02-09T16:55:02.018Z,9.32
2023-02-09T16:57:04.423Z,9.68
2023-02-09T16:59:06.071Z,9.02
2023-02-09T17:01:16.985Z,9.13
2023-02-09T17:03:22.358Z,8.90
2023-02-09T17:05:29.705Z,9.32
2023-02-09T17:07:45.352Z,7.97
2023-02-09T17:09:57.216Z,8.98
2023-02-09T17:11:58.773Z,10.25
2023-02-09T17:14:00.436Z,11.20
2023-02-09T17:16:04.359Z,10.43
2023-02-09T17:20:10.471Z,10.18
2023-02-09T17:24:15.898Z,19.90
2023-02-09T17:26:18.469Z,11.38
2023-02-09T17:28:20.199Z,13.93
2023-02-09T17:30:21.844Z,11.02
2023-02-09T17:32:23.556Z,10.20
2023-02-09T17:34:28.454Z,10.90
2023-02-09T17:36:31.012Z,9.77
2023-02-09T17:38:35.872Z,10.07
2023-02-09T17:40:37.471Z,9.93
2023-02-09T17:42:39.154Z,10.77
2023-02-09T17:44:46.330Z,10.20
2023-02-09T17:46:48.664Z,10.73
2023-02-09T17:48:50.386Z,11.23
2023-02-09T17:50:53.002Z,11.82
2023-02-09T17:52:54.766Z,11.15
2023-02-09T17:54:56.409Z,11.98
2023-02-09T17:56:58.130Z,12.02
2023-02-09T17:59:03.089Z,12.45
2023-02-09T18:01:21.668Z,12.45
2023-02-09T18:03:26.031Z,13.10
2023-02-09T18:05:28.405Z,12.88
2023-02-09T18:07:30.299Z,12.52
2023-02-09T18:09:31.919Z,14.43
2023-02-09T18:12:03.028Z,14.68
2023-02-09T18:14:04.916Z,13.40
2023-02-09T18:16:07.692Z,12.25
2023-02-09T18:18:09.802Z,11.30
2023-02-09T18:20:16.447Z,12.10
2023-02-09T18:22:19.908Z,11.05
2023-02-09T18:24:22.980Z,11.02
2023-02-09T18:26:24.623Z,11.15
2023-02-09T18:28:26.274Z,11.20
2023-02-09T18:30:30.844Z,11.20
2023-02-09T18:32:32.495Z,11.45
2023-02-09T18:34:35.927Z,12.85
2023-02-09T18:36:37.599Z,13.93
2023-02-09T18:38:39.326Z,11.55
2023-02-09T18:40:41.003Z,12.02
2023-02-09T18:42:43.358Z,11.85
2023-02-09T18:44:45.057Z,12.35
2023-02-09T18:46:46.687Z,10.38
2023-02-09T18:48:48.304Z,10.57
2023-02-09T18:50:49.953Z,10.48
2023-02-09T18:52:54.152Z,10.13
2023-02-09T18:54:55.787Z,11.55
2023-02-09T18:56:57.445Z,10.18
2023-02-09T18:58:59.080Z,9.73
2023-02-09T19:01:00.688Z,8.93
2023-02-09T19:03:02.359Z,10.18
2023-02-09T19:05:04.609Z,9.75
2023-02-09T19:07:09.469Z,10.18
2023-02-09T19:09:11.236Z,9.48
2023-02-09T19:11:14.208Z,15.82
2023-02-09T19:13:15.819Z,21.63
2023-02-09T19:15:18.745Z,21.30
2023-02-09T19:17:21.305Z,20.07
2023-02-09T19:19:23.139Z,20.00
2023-02-09T19:21:24.872Z,19.90
2023-02-09T19:23:26.463Z,20.45
2023-02-09T19:25:28.778Z,31.70
2023-02-09T19:27:30.493Z,32.67
2023-02-09T19:29:33.246Z,36.33
2023-02-09T19:31:34.889Z,33.03
2023-02-09T19:33:36.499Z,31.13
2023-02-09T19:35:38.122Z,29.40
2023-02-09T19:37:42.028Z,30.63
2023-02-09T19:41:54.545Z,31.15
2023-02-09T19:43:57.241Z,29.27
2023-02-09T19:45:59.333Z,27.85
2023-02-09T19:48:00.972Z,26.23
2023-02-09T19:50:02.661Z,27.52
2023-02-09T19:52:05.023Z,27.25
2023-02-09T19:54:06.682Z,27.80
2023-02-09T19:56:15.886Z,27.30
2023-02-09T19:58:17.554Z,27.83
2023-02-09T20:00:19.396Z,28.92
2023-02-09T20:02:21.015Z,25.75
2023-02-09T20:04:22.953Z,26.33
2023-02-09T20:06:24.740Z,27.35
2023-02-09T20:08:26.592Z,26.70
2023-02-09T20:10:28.265Z,27.08
2023-02-09T20:12:29.813Z,27.60
2023-02-09T20:14:33.520Z,27.73
2023-02-09T20:16:35.822Z,27.65
2023-02-09T20:18:37.872Z,28.48
2023-02-09T20:20:42.955Z,28.20
2023-02-09T20:22:44.793Z,27.05
2023-02-09T20:24:46.536Z,28.08
2023-02-09T20:26:48.267Z,27.45
2023-02-09T20:28:50.558Z,27.88
2023-02-09T20:30:52.181Z,27.42
2023-02-09T20:32:53.830Z,27.90
2023-02-09T20:34:55.664Z,27.15
2023-02-09T20:36:57.649Z,25.73
2023-02-09T20:38:59.251Z,28.42
2023-02-09T20:41:00.923Z,26.27
2023-02-09T20:43:21.022Z,26.42
2023-02-09T20:45:41.405Z,26.35
2023-02-09T20:47:43.110Z,27.60
2023-02-09T20:49:44.885Z,26.58
2023-02-09T20:51:46.910Z,26.73
2023-02-09T20:53:48.501Z,27.02
2023-02-09T20:55:50.103Z,26.33
2023-02-09T20:57:51.706Z,26.45
2023-02-09T20:59:53.359Z,25.85
2023-02-09T21:01:55.035Z,26.05
2023-02-09T21:03:58.851Z,25.08
2023-02-09T21:06:00.515Z,25.55
2023-02-09T21:08:04.611Z,25.90
2023-02-09T21:10:07.164Z,24.13
2023-02-09T21:12:08.750Z,25.30
2023-02-09T21:14:21.637Z,25.23
2023-02-09T21:16:32.487Z,25.35
2023-02-09T21:18:36.094Z,25.90
2023-02-09T21:20:38.124Z,24.35
2023-02-09T21:22:39.779Z,26.38
2023-02-09T21:24:41.979Z,26.40
2023-02-09T21:26:43.878Z,23.83
2023-02-09T21:28:48.309Z,24.30
2023-02-09T21:30:50.237Z,26.50
2023-02-09T21:32:51.948Z,26.80
2023-02-09T21:34:53.544Z,27.33
2023-02-09T21:36:55.136Z,25.73
2023-02-09T21:38:56.776Z,25.35
2023-02-09T21:40:58.421Z,25.35
2023-02-09T21:43:00.306Z,24.25
2023-02-09T21:45:01.962Z,25.27
2023-02-09T21:47:03.678Z,25.35
2023-02-09T21:49:05.339Z,26.55
2023-02-09T21:51:07.044Z,24.80
2023-02-09T21:53:08.666Z,26.75
2023-02-09T21:55:10.415Z,27.23
2023-02-09T21:57:12.008Z,27.58
2023-02-09T21:59:13.585Z,27.58
2023-02-09T22:01:15.199Z,28.98
2023-02-09T22:03:16.869Z,29.95
2023-02-09T22:05:18.534Z,28.88
2023-02-09T22:07:20.121Z,30.95
2023-02-09T22:09:23.157Z,30.52
2023-02-09T22:11:24.738Z,34.17
2023-02-09T22:13:26.415Z,32.22
2023-02-09T22:15:28.071Z,31.92
2023-02-09T22:17:29.770Z,31.20
2023-02-09T22:19:31.432Z,30.65
2023-02-09T22:21:33.081Z,30.67
2023-02-09T22:23:34.907Z,31.20
2023-02-09T22:25:36.657Z,29.05
2023-02-09T22:27:38.305Z,29.17
2023-02-09T22:29:39.965Z,29.23
2023-02-09T22:31:42.168Z,29.88
2023-02-09T22:33:44.037Z,27.90
2023-02-09T22:35:46.011Z,28.80
2023-02-09T22:37:47.777Z,27.60
2023-02-09T22:39:49.430Z,26.83
2023-02-09T22:41:51.037Z,28.10
2023-02-09T22:43:54.809Z,25.67
2023-02-09T22:45:57.029Z,25.90
2023-02-09T22:47:58.671Z,27.92
2023-02-09T22:50:00.390Z,27.15
2023-02-09T22:52:01.982Z,26.77
2023-02-09T22:54:04.773Z,26.65
2023-02-09T22:56:07.982Z,28.80
2023-02-09T22:58:09.609Z,28.85
2023-02-09T23:00:12.311Z,30.05
2023-02-09T23:02:13.900Z,29.20
2023-02-09T23:04:15.687Z,30.58
2023-02-09T23:06:20.245Z,29.92
2023-02-09T23:08:23.117Z,30.33
2023-02-09T23:10:25.106Z,31.73
2023-02-09T23:12:26.721Z,31.52
2023-02-09T23:14:28.408Z,32.35
2023-02-09T23:16:30.693Z,31.55
2023-02-09T23:18:32.265Z,32.28
2023-02-09T23:20:33.952Z,31.92
2023-02-09T23:22:35.572Z,30.40
2023-02-09T23:24:37.224Z,29.80
2023-02-09T23:26:39.255Z,30.98
2023-02-09T23:28:41.005Z,31.50
2023-02-09T23:30:42.687Z,32.33
2023-02-09T23:32:44.379Z,30.17
2023-02-09T23:34:46.000Z,32.47
2023-02-09T23:36:47.731Z,34.17
2023-02-09T23:38:53.874Z,32.60
2023-02-09T23:40:55.479Z,31.50
2023-02-09T23:42:57.122Z,31.52
2023-02-09T23:44:58.910Z,32.03
2023-02-09T23:47:00.601Z,31.08
2023-02-09T23:49:02.237Z,32.72
2023-02-09T23:51:15.546Z,31.27
2023-02-09T23:53:17.178Z,30.70
2023-02-09T23:55:18.932Z,31.25
2023-02-09T23:57:23.444Z,30.42
2023-02-09T23:59:25.057Z,30.17
